首页
METAR-TAF:

METAR-TAF

机场 :

黑角, 刚果

纬度: 04-49S, 经度: 011-54E, 海拔: 17米

当前天气观测

该预报发布于34分钟前的01:00 UTC
风速3节,风向东转东北
温度 24°C
湿度 100%
气压 1010 hPa
能見度: 6000
少量云层高于1000英尺
多云层高于2300英尺

METAR: FCPP 190100Z 07003KT 6000 FEW010 BKN023 24/24 Q1010 BECMG 4000 BR

时间: 02:34 (01:34 UTC)

预报

该预报发布于2小时和34分钟前的23:00 UTC
预报有效从19日的 00点(UTC)到 19日的 24点(UTC)
风速4节,风向南转西南
能見度: 8000
散云层高于1000英尺
多云层高于2300英尺
几率 40%
从 19日的 04点(UTC)到 19日的 08点(UTC)
能見度: 3000
轻雾
成为
从 19日的 12点(UTC)到 19日的 14点(UTC)
散云层高于2300英尺
少量云层高于3000英尺, 积雨云.
几率 30%
从 19日的 16点(UTC)到 19日的 19点(UTC)
雷暴
成为
从 19日的 20点(UTC)到 19日的 22点(UTC)
散云层高于1000英尺

TAF: FCPP 182300Z 1900/1924 20004KT 8000 SCT010 BKN023 PROB40 1904/1908 3000 BR BECMG 1912/1914 SCT023 FEW030CB PROB30 1916/1919 TS BECMG 1920/1922 SCT010

超过4000个机场的气象观测和天气预报(METAR&TAF报告)。

可查询的气象台以黄色和红色小点在地图上表示。

将鼠标移到小点上方,可查看气象台名称。

然后点击查看天气观测和预报。

如需切换地图:点击带黑十字的绿色按钮放大地图;点击带横线的绿色按钮缩小地图;或者点击绿色箭头查看邻近地区的地图。


METAR-TAF: